createdAt,value
2018-09-06T00:01:53.145Z,17.60
2018-09-06T00:04:21.673Z,17.60
2018-09-06T00:06:50.207Z,17.50
2018-09-06T00:09:18.963Z,17.50
2018-09-06T00:11:47.479Z,17.50
2018-09-06T00:14:16.015Z,17.50
2018-09-06T00:16:44.559Z,17.50
2018-09-06T00:19:13.068Z,17.40
2018-09-06T00:21:41.604Z,17.40
2018-09-06T00:24:10.134Z,17.40
2018-09-06T00:26:38.713Z,17.40
2018-09-06T00:29:07.213Z,17.30
2018-09-06T00:31:35.738Z,17.30
2018-09-06T00:34:04.514Z,17.30
2018-09-06T00:36:33.054Z,17.30
2018-09-06T00:39:01.552Z,17.30
2018-09-06T00:41:32.416Z,17.30
2018-09-06T00:44:01.114Z,17.30
2018-09-06T00:46:29.704Z,17.40
2018-09-06T00:48:58.260Z,17.40
2018-09-06T00:51:27.383Z,17.40
2018-09-06T00:53:56.202Z,17.50
2018-09-06T00:56:24.815Z,17.50
2018-09-06T00:58:53.333Z,17.60
2018-09-06T01:01:22.116Z,17.60
2018-09-06T01:03:50.642Z,17.70
2018-09-06T01:06:19.151Z,17.70
2018-09-06T01:08:47.641Z,17.80
2018-09-06T01:11:16.197Z,17.80
2018-09-06T01:13:44.712Z,17.80
2018-09-06T01:16:13.231Z,17.80
2018-09-06T01:18:41.762Z,17.80
2018-09-06T01:21:10.293Z,17.90
2018-09-06T01:23:38.808Z,17.90
2018-09-06T01:26:07.582Z,17.90
2018-09-06T01:28:36.154Z,17.90
2018-09-06T01:31:04.656Z,17.90
2018-09-06T01:33:33.822Z,17.90
2018-09-06T01:36:07.826Z,17.90
2018-09-06T01:38:36.383Z,17.90
2018-09-06T01:41:04.948Z,17.90
2018-09-06T01:43:33.479Z,17.90
2018-09-06T01:46:02.026Z,17.80
2018-09-06T01:48:31.043Z,17.70
2018-09-06T01:50:59.590Z,17.70
2018-09-06T01:53:28.874Z,17.60
2018-09-06T01:55:57.815Z,17.60
2018-09-06T01:58:26.387Z,17.50
2018-09-06T02:00:54.886Z,17.50
2018-09-06T02:03:23.399Z,17.50
2018-09-06T02:05:51.945Z,17.40
2018-09-06T02:08:20.717Z,17.40
2018-09-06T02:10:49.265Z,17.40
2018-09-06T02:13:17.807Z,17.40
2018-09-06T02:15:46.284Z,17.30
2018-09-06T02:18:14.857Z,17.20
2018-09-06T02:20:43.343Z,17.20
2018-09-06T02:23:11.876Z,17.20
2018-09-06T02:25:40.410Z,17.20
2018-09-06T02:28:09.019Z,17.20
2018-09-06T02:30:37.527Z,17.20
2018-09-06T02:33:06.050Z,17.20
2018-09-06T02:35:34.657Z,17.20
2018-09-06T02:38:03.150Z,17.20
2018-09-06T02:40:37.040Z,17.20
2018-09-06T02:43:06.086Z,17.20
2018-09-06T02:45:34.620Z,17.30
2018-09-06T02:48:03.123Z,17.20
2018-09-06T02:50:37.001Z,17.20
2018-09-06T02:53:05.555Z,17.10
2018-09-06T02:55:34.099Z,17.10
2018-09-06T02:58:02.630Z,17.10
2018-09-06T03:00:33.736Z,16.90
2018-09-06T03:03:02.282Z,16.90
2018-09-06T03:05:30.816Z,16.80
2018-09-06T03:08:00.347Z,16.80
2018-09-06T03:10:46.915Z,16.70
2018-09-06T03:13:15.454Z,16.70
2018-09-06T03:15:43.948Z,16.70
2018-09-06T03:18:12.434Z,16.70
2018-09-06T03:20:40.972Z,16.70
2018-09-06T03:23:09.465Z,16.60
2018-09-06T03:25:37.965Z,16.70
2018-09-06T03:28:06.436Z,16.60
2018-09-06T03:30:34.950Z,16.60
2018-09-06T03:33:03.619Z,16.50
2018-09-06T03:35:32.439Z,16.50
2018-09-06T03:38:01.009Z,16.50
2018-09-06T03:40:29.589Z,16.40
2018-09-06T03:42:58.113Z,16.40
2018-09-06T03:45:26.666Z,16.40
2018-09-06T03:47:55.155Z,16.40
2018-09-06T03:50:23.654Z,16.40
2018-09-06T03:52:52.184Z,16.40
2018-09-06T03:55:20.910Z,16.40
2018-09-06T03:57:49.871Z,16.40
2018-09-06T04:00:18.412Z,16.40
2018-09-06T04:02:46.905Z,16.40
2018-09-06T04:05:15.504Z,16.40
2018-09-06T04:07:43.993Z,16.40
2018-09-06T04:10:12.550Z,16.40
2018-09-06T04:12:41.517Z,16.40
2018-09-06T04:15:10.038Z,16.30
2018-09-06T04:17:39.147Z,16.30
2018-09-06T04:20:07.688Z,16.30
2018-09-06T04:22:40.633Z,16.30
2018-09-06T04:25:09.107Z,16.30
2018-09-06T04:27:37.768Z,16.30
2018-09-06T04:30:06.318Z,16.30
2018-09-06T04:32:34.827Z,16.30
2018-09-06T04:35:03.519Z,16.30
2018-09-06T04:37:32.394Z,16.30
2018-09-06T04:40:00.900Z,16.20
2018-09-06T04:42:29.455Z,16.20
2018-09-06T04:44:58.035Z,16.20
2018-09-06T04:47:26.970Z,16.20
2018-09-06T04:49:55.494Z,16.20
2018-09-06T04:52:24.384Z,16.20
2018-09-06T04:54:53.312Z,16.30
2018-09-06T04:57:21.787Z,16.40
2018-09-06T04:59:51.195Z,16.50
2018-09-06T05:02:19.672Z,16.60
2018-09-06T05:04:48.205Z,16.60
2018-09-06T05:07:16.730Z,16.80
2018-09-06T05:09:45.426Z,16.80
2018-09-06T05:12:13.903Z,16.90
2018-09-06T05:14:42.419Z,17.00
2018-09-06T05:17:11.571Z,17.10
2018-09-06T05:19:40.211Z,17.10
2018-09-06T05:22:08.933Z,17.20
2018-09-06T05:24:37.395Z,17.20
2018-09-06T05:27:05.902Z,17.20
2018-09-06T05:29:34.446Z,17.20
2018-09-06T05:32:03.028Z,17.20
2018-09-06T05:34:32.507Z,17.20
2018-09-06T05:37:01.144Z,17.40
2018-09-06T05:39:30.182Z,17.40
2018-09-06T05:41:58.675Z,17.50
2018-09-06T05:44:27.593Z,17.50
2018-09-06T05:46:56.852Z,17.60
2018-09-06T05:49:25.393Z,17.60
2018-09-06T05:51:54.635Z,17.70
2018-09-06T05:54:23.173Z,17.80
2018-09-06T05:56:51.672Z,17.90
2018-09-06T05:59:20.183Z,18.00
2018-09-06T06:01:48.712Z,18.10
2018-09-06T06:04:17.249Z,18.10
2018-09-06T06:06:45.732Z,18.20
2018-09-06T06:09:14.286Z,18.30
2018-09-06T06:11:43.514Z,18.40
2018-09-06T06:14:12.079Z,18.50
2018-09-06T06:16:40.632Z,18.50
2018-09-06T06:19:09.162Z,18.60
2018-09-06T06:21:37.710Z,18.60
2018-09-06T06:24:06.687Z,18.60
2018-09-06T06:26:35.778Z,18.70
2018-09-06T06:29:04.337Z,18.60
2018-09-06T06:31:32.831Z,18.70
2018-09-06T06:34:01.492Z,18.70
2018-09-06T06:36:29.951Z,18.80
2018-09-06T06:38:58.506Z,19.00
2018-09-06T06:41:27.004Z,19.20
2018-09-06T06:43:55.583Z,19.30
2018-09-06T06:46:24.056Z,19.40
2018-09-06T06:48:52.542Z,19.40
2018-09-06T06:51:21.949Z,19.40
2018-09-06T06:53:50.700Z,19.30
2018-09-06T06:56:19.225Z,19.40
2018-09-06T06:58:47.795Z,19.40
2018-09-06T07:01:16.632Z,19.50
2018-09-06T07:03:45.986Z,19.50
2018-09-06T07:06:14.467Z,19.50
2018-09-06T07:08:42.990Z,19.50
2018-09-06T07:11:11.519Z,19.60
2018-09-06T07:13:40.043Z,19.60
2018-09-06T07:16:08.562Z,19.70
2018-09-06T07:18:37.415Z,19.70
2018-09-06T07:21:06.337Z,19.80
2018-09-06T07:23:38.354Z,19.90
2018-09-06T07:26:06.914Z,19.90
2018-09-06T07:28:35.426Z,19.90
2018-09-06T07:31:04.710Z,20.00
2018-09-06T07:33:33.437Z,20.00
2018-09-06T07:36:01.951Z,20.00
2018-09-06T07:38:30.490Z,20.00
2018-09-06T07:40:58.958Z,20.20
2018-09-06T07:43:27.733Z,20.30
2018-09-06T07:45:56.204Z,20.40
2018-09-06T07:48:24.700Z,20.40
2018-09-06T07:50:53.230Z,20.30
2018-09-06T07:53:21.720Z,20.50
2018-09-06T07:55:50.258Z,20.60
2018-09-06T07:58:18.817Z,20.60
2018-09-06T08:00:47.352Z,20.80
2018-09-06T08:03:16.207Z,21.10
2018-09-06T08:05:44.859Z,21.40
2018-09-06T08:08:13.570Z,21.60
2018-09-06T08:10:42.172Z,21.70
2018-09-06T08:13:10.934Z,22.00
2018-09-06T08:15:39.502Z,22.10
2018-09-06T08:18:08.018Z,22.10
2018-09-06T08:20:36.562Z,22.00
2018-09-06T08:23:05.160Z,22.00
2018-09-06T08:25:33.782Z,21.90
2018-09-06T08:28:02.271Z,21.70
2018-09-06T08:30:30.816Z,21.70
2018-09-06T08:32:59.310Z,21.60
2018-09-06T08:35:28.811Z,21.60
2018-09-06T08:37:57.911Z,21.70
2018-09-06T08:40:26.435Z,21.60
2018-09-06T08:42:54.947Z,21.60
2018-09-06T08:45:23.526Z,21.70
2018-09-06T08:47:52.007Z,22.00
2018-09-06T08:50:20.897Z,21.90
2018-09-06T08:52:49.436Z,22.10
2018-09-06T08:55:17.921Z,22.40
2018-09-06T08:57:46.480Z,22.60
2018-09-06T09:00:15.681Z,22.80
2018-09-06T09:02:44.552Z,23.00
2018-09-06T09:05:13.072Z,23.10
2018-09-06T09:07:41.680Z,23.20
2018-09-06T09:10:10.200Z,23.30
2018-09-06T09:12:39.003Z,23.40
2018-09-06T09:15:07.790Z,23.60
2018-09-06T09:17:36.308Z,23.70
2018-09-06T09:20:04.879Z,23.80
2018-09-06T09:22:33.621Z,23.80
2018-09-06T09:25:02.420Z,23.90
2018-09-06T09:27:31.000Z,24.00
2018-09-06T09:29:59.571Z,24.10
2018-09-06T09:32:28.305Z,24.10
2018-09-06T09:34:56.889Z,24.20
2018-09-06T09:37:25.482Z,24.30
2018-09-06T09:39:54.067Z,24.40
2018-09-06T09:42:22.571Z,24.50
2018-09-06T09:44:51.206Z,24.60
2018-09-06T09:49:50.842Z,24.70
2018-09-06T09:54:47.226Z,24.90
2018-09-06T09:57:15.858Z,24.90
2018-09-06T09:59:45.404Z,25.00
2018-09-06T10:02:19.125Z,25.00
2018-09-06T10:04:52.966Z,25.00
2018-09-06T10:07:26.952Z,25.10
2018-09-06T10:09:56.325Z,25.10
2018-09-06T10:12:24.968Z,25.10
2018-09-06T10:14:53.553Z,25.10
2018-09-06T10:17:22.125Z,25.20
2018-09-06T10:19:50.746Z,25.20
2018-09-06T10:22:19.317Z,25.30
2018-09-06T10:24:47.878Z,25.30
2018-09-06T10:27:17.109Z,25.30
2018-09-06T10:29:45.796Z,25.30
2018-09-06T10:32:14.633Z,25.40
2018-09-06T10:34:43.401Z,25.40
2018-09-06T10:37:12.902Z,25.40
2018-09-06T10:39:41.734Z,25.40
2018-09-06T10:42:11.770Z,25.40
2018-09-06T10:44:42.283Z,25.40
2018-09-06T10:47:10.779Z,25.40
2018-09-06T10:49:39.386Z,25.40
2018-09-06T10:52:07.905Z,25.40
2018-09-06T10:54:37.065Z,25.40
2018-09-06T10:57:06.752Z,25.40
2018-09-06T10:59:35.424Z,25.40
2018-09-06T11:02:04.038Z,25.40
2018-09-06T11:04:33.396Z,25.40
2018-09-06T11:07:01.978Z,25.40
2018-09-06T11:09:30.654Z,25.40
2018-09-06T11:11:59.316Z,25.40
2018-09-06T11:14:27.866Z,25.40
2018-09-06T11:16:57.402Z,25.40
2018-09-06T11:19:26.156Z,25.40
2018-09-06T11:21:54.934Z,25.40
2018-09-06T11:24:23.512Z,25.40
2018-09-06T11:26:52.674Z,25.40
2018-09-06T11:32:24.121Z,25.30
2018-09-06T11:34:53.061Z,25.30
2018-09-06T11:37:21.691Z,25.30
2018-09-06T11:39:52.319Z,25.20
2018-09-06T11:42:21.582Z,25.20
2018-09-06T11:44:50.435Z,25.30
2018-09-06T11:47:19.149Z,25.20
2018-09-06T11:49:47.738Z,25.30
2018-09-06T11:52:16.363Z,25.20
2018-09-06T11:54:47.377Z,25.20
2018-09-06T11:57:16.254Z,25.20
2018-09-06T11:59:45.719Z,25.10
2018-09-06T12:02:15.405Z,25.10
2018-09-06T12:04:44.513Z,25.10
2018-09-06T12:07:13.380Z,25.10
2018-09-06T12:09:41.991Z,25.10
2018-09-06T12:12:10.676Z,25.00
2018-09-06T12:14:39.276Z,25.00
2018-09-06T12:17:08.329Z,25.00
2018-09-06T12:19:39.097Z,25.00
2018-09-06T12:22:07.603Z,25.00
2018-09-06T12:24:36.148Z,25.00
2018-09-06T12:27:05.059Z,25.10
2018-09-06T12:29:33.653Z,25.10
2018-09-06T12:32:02.385Z,25.00
2018-09-06T12:34:31.113Z,25.00
2018-09-06T12:36:59.675Z,25.00
2018-09-06T12:39:28.239Z,24.90
2018-09-06T12:41:56.904Z,24.90
2018-09-06T12:44:26.207Z,24.90
2018-09-06T12:46:54.806Z,24.90
2018-09-06T12:49:23.391Z,24.90
2018-09-06T12:51:51.973Z,24.90
2018-09-06T12:54:20.629Z,24.90
2018-09-06T12:56:49.176Z,24.90
2018-09-06T12:59:18.025Z,24.90
2018-09-06T13:01:46.620Z,24.90
2018-09-06T13:04:15.240Z,24.90
2018-09-06T13:06:43.900Z,24.90
2018-09-06T13:09:13.233Z,24.90
2018-09-06T13:11:42.246Z,24.90
2018-09-06T13:14:10.855Z,24.90
2018-09-06T13:16:40.171Z,25.00
2018-09-06T13:19:08.906Z,25.20
2018-09-06T13:21:37.563Z,25.10
2018-09-06T13:24:18.298Z,25.10
2018-09-06T13:26:48.683Z,25.20
2018-09-06T13:29:17.254Z,25.30
2018-09-06T13:31:46.117Z,25.30
2018-09-06T13:34:14.707Z,25.30
2018-09-06T13:36:44.024Z,25.20
2018-09-06T13:39:14.356Z,25.20
2018-09-06T13:41:45.818Z,25.10
2018-09-06T13:44:14.671Z,25.20
2018-09-06T13:46:43.263Z,25.30
2018-09-06T13:49:11.832Z,25.30
2018-09-06T13:51:40.383Z,25.50
2018-09-06T13:54:09.004Z,26.70
2018-09-06T13:56:39.853Z,27.40
2018-09-06T13:59:14.963Z,27.70
2018-09-06T14:01:44.837Z,27.60
2018-09-06T14:04:13.364Z,27.40
2018-09-06T14:06:41.891Z,27.60
2018-09-06T14:09:10.555Z,28.50
2018-09-06T14:11:39.126Z,29.00
2018-09-06T14:14:07.758Z,28.70
2018-09-06T14:16:36.401Z,29.30
2018-09-06T14:19:04.964Z,29.20
2018-09-06T14:21:33.527Z,28.80
2018-09-06T14:24:02.396Z,28.50
2018-09-06T14:26:31.128Z,28.20
2018-09-06T14:28:59.691Z,28.00
2018-09-06T14:31:28.416Z,27.70
2018-09-06T14:33:57.597Z,27.50
2018-09-06T14:36:26.185Z,27.30
2018-09-06T14:38:54.907Z,27.10
2018-09-06T14:41:23.579Z,27.00
2018-09-06T14:43:52.198Z,26.80
2018-09-06T14:46:20.824Z,26.80
2018-09-06T14:48:49.371Z,26.60
2018-09-06T14:51:18.120Z,26.50
2018-09-06T14:53:48.044Z,26.40
2018-09-06T14:56:16.715Z,26.30
2018-09-06T14:58:45.243Z,26.20
2018-09-06T15:01:14.084Z,26.10
2018-09-06T15:03:42.951Z,26.10
2018-09-06T15:06:11.784Z,26.00
2018-09-06T15:08:40.543Z,25.90
2018-09-06T15:11:09.248Z,25.80
2018-09-06T15:13:37.840Z,25.70
2018-09-06T15:16:06.672Z,25.70
2018-09-06T15:18:36.257Z,25.70
2018-09-06T15:21:05.047Z,25.70
2018-09-06T15:23:33.822Z,25.70
2018-09-06T15:26:02.399Z,25.70
2018-09-06T15:28:30.960Z,25.70
2018-09-06T15:30:59.717Z,25.70
2018-09-06T15:33:28.461Z,25.70
2018-09-06T15:35:57.254Z,25.80
2018-09-06T15:38:25.823Z,25.70
2018-09-06T15:40:54.762Z,25.70
2018-09-06T15:43:23.267Z,25.70
2018-09-06T15:45:52.093Z,25.70
2018-09-06T15:48:20.723Z,25.60
2018-09-06T15:50:49.307Z,25.60
2018-09-06T15:53:18.155Z,25.50
2018-09-06T15:55:47.902Z,25.40
2018-09-06T15:58:16.694Z,25.40
2018-09-06T16:00:45.406Z,25.30
2018-09-06T16:03:14.404Z,25.30
2018-09-06T16:05:43.261Z,25.20
2018-09-06T16:08:11.948Z,25.10
2018-09-06T16:10:41.532Z,25.10
2018-09-06T16:13:11.282Z,25.10
2018-09-06T16:15:40.717Z,25.10
2018-09-06T16:18:09.282Z,25.10
2018-09-06T16:20:38.764Z,25.20
2018-09-06T16:23:07.615Z,25.20
2018-09-06T16:25:36.176Z,25.20
2018-09-06T16:28:05.012Z,25.20
2018-09-06T16:30:33.684Z,25.30
2018-09-06T16:33:02.386Z,25.30
2018-09-06T16:35:30.953Z,25.30
2018-09-06T16:37:59.594Z,25.20
2018-09-06T16:40:28.144Z,25.30
2018-09-06T16:42:57.114Z,25.20
2018-09-06T16:45:26.065Z,25.10
2018-09-06T16:47:54.980Z,25.10
2018-09-06T16:50:23.961Z,25.10
2018-09-06T16:52:52.765Z,25.00
2018-09-06T16:55:21.408Z,24.90
2018-09-06T16:57:50.059Z,24.90
2018-09-06T17:00:18.637Z,24.80
2018-09-06T17:02:47.272Z,24.80
2018-09-06T17:05:15.843Z,24.70
2018-09-06T17:07:44.467Z,24.60
2018-09-06T17:10:13.148Z,24.60
2018-09-06T17:12:41.749Z,24.50
2018-09-06T17:15:10.443Z,24.40
2018-09-06T17:17:39.351Z,24.40
2018-09-06T17:20:08.207Z,24.20
2018-09-06T17:22:36.907Z,24.20
2018-09-06T17:25:18.393Z,24.10
2018-09-06T17:27:50.909Z,24.00
2018-09-06T17:30:21.500Z,24.00
2018-09-06T17:32:50.232Z,23.90
2018-09-06T17:35:19.518Z,23.80
2018-09-06T17:37:48.237Z,23.70
2018-09-06T17:40:17.014Z,23.70
2018-09-06T17:42:54.425Z,23.60
2018-09-06T17:45:26.354Z,23.60
2018-09-06T17:47:56.826Z,23.50
2018-09-06T17:50:44.878Z,23.40
2018-09-06T17:53:14.953Z,23.40
2018-09-06T17:55:43.652Z,23.40
2018-09-06T17:58:12.199Z,23.30
2018-09-06T18:00:45.926Z,23.20
2018-09-06T18:03:15.498Z,23.20
2018-09-06T18:05:44.118Z,23.10
2018-09-06T18:08:12.719Z,23.00
2018-09-06T18:10:41.361Z,23.00
2018-09-06T18:13:10.060Z,23.00
2018-09-06T18:15:42.340Z,22.90
2018-09-06T18:18:11.000Z,22.80
2018-09-06T18:20:47.688Z,22.80
2018-09-06T18:23:21.202Z,22.70
2018-09-06T18:25:49.916Z,22.60
2018-09-06T18:28:20.473Z,22.60
2018-09-06T18:30:59.643Z,22.50
2018-09-06T18:33:29.534Z,22.40
2018-09-06T18:36:20.719Z,22.40
2018-09-06T18:38:49.858Z,22.30
2018-09-06T18:41:19.373Z,22.30
2018-09-06T18:44:02.710Z,22.20
2018-09-06T18:49:59.033Z,22.10
2018-09-06T18:52:34.194Z,22.00
2018-09-06T18:55:03.773Z,22.00
2018-09-06T18:57:33.436Z,21.90
2018-09-06T19:00:02.304Z,21.90
2018-09-06T19:02:31.763Z,21.80
2018-09-06T19:05:00.491Z,21.80
2018-09-06T19:07:30.884Z,21.70
2018-09-06T19:10:00.073Z,21.70
2018-09-06T19:12:32.888Z,21.70
2018-09-06T19:15:01.570Z,21.70
2018-09-06T19:17:31.396Z,21.60
2018-09-06T19:20:20.644Z,21.60
2018-09-06T19:22:51.854Z,21.60
2018-09-06T19:25:23.657Z,21.60
2018-09-06T19:27:55.148Z,21.50
2018-09-06T19:30:24.942Z,21.50
2018-09-06T19:32:55.063Z,21.50
2018-09-06T19:35:25.993Z,21.50
2018-09-06T19:51:58.035Z,21.40
2018-09-06T19:54:53.646Z,21.40
2018-09-06T19:57:23.354Z,21.40
2018-09-06T19:59:55.653Z,21.40
2018-09-06T20:02:25.307Z,21.40
2018-09-06T20:04:58.832Z,21.40
2018-09-06T20:07:31.050Z,21.40
2018-09-06T20:10:00.350Z,21.40
2018-09-06T20:12:29.098Z,21.40
2018-09-06T20:15:04.473Z,21.40
2018-09-06T20:17:33.434Z,21.30
2018-09-06T20:20:02.010Z,21.30
2018-09-06T20:22:30.900Z,21.30
2018-09-06T20:25:00.383Z,21.30
2018-09-06T20:27:30.009Z,21.20
2018-09-06T20:29:58.712Z,21.20
2018-09-06T20:32:27.812Z,21.20
2018-09-06T20:34:56.448Z,21.10
2018-09-06T20:37:25.088Z,21.10
2018-09-06T20:39:53.874Z,21.10
2018-09-06T20:42:22.666Z,21.10
2018-09-06T20:44:51.931Z,21.10
2018-09-06T20:47:20.534Z,21.10
2018-09-06T20:49:49.175Z,21.10
2018-09-06T20:52:17.903Z,21.10
2018-09-06T20:54:46.472Z,21.10
2018-09-06T20:57:15.038Z,21.10
2018-09-06T20:59:43.626Z,21.10
2018-09-06T21:02:18.125Z,21.10
2018-09-06T21:04:48.010Z,21.10
2018-09-06T21:07:16.777Z,21.00
2018-09-06T21:09:45.675Z,21.00
2018-09-06T21:12:14.268Z,21.00
2018-09-06T21:14:43.044Z,21.00
2018-09-06T21:17:11.650Z,21.00
2018-09-06T21:19:40.843Z,21.00
2018-09-06T21:22:09.540Z,21.00
2018-09-06T21:24:39.134Z,21.00
2018-09-06T21:27:07.843Z,20.90
2018-09-06T21:29:36.414Z,20.90
2018-09-06T21:32:05.467Z,20.80
2018-09-06T21:34:34.277Z,20.80
2018-09-06T21:37:02.818Z,20.80
2018-09-06T21:39:31.453Z,20.70
2018-09-06T21:41:59.972Z,20.70
2018-09-06T21:44:28.595Z,20.70
2018-09-06T21:46:57.115Z,20.60
2018-09-06T21:49:25.724Z,20.60
2018-09-06T21:51:54.562Z,20.60
2018-09-06T21:54:23.197Z,20.60
2018-09-06T21:56:51.744Z,20.50
2018-09-06T21:59:20.391Z,20.50
2018-09-06T22:01:50.853Z,20.50
2018-09-06T22:04:19.701Z,20.50
2018-09-06T22:06:48.267Z,20.50
2018-09-06T22:09:16.851Z,20.50
2018-09-06T22:11:45.583Z,20.50
2018-09-06T22:14:14.151Z,20.50
2018-09-06T22:16:42.695Z,20.40
2018-09-06T22:19:11.246Z,20.40
2018-09-06T22:21:39.882Z,20.40
2018-09-06T22:24:08.484Z,20.50
2018-09-06T22:26:37.247Z,20.40
2018-09-06T22:29:05.984Z,20.40
2018-09-06T22:31:34.587Z,20.40
2018-09-06T22:34:04.795Z,20.40
2018-09-06T22:36:33.327Z,20.40
2018-09-06T22:39:01.873Z,20.40
2018-09-06T22:41:30.398Z,20.40
2018-09-06T22:43:58.914Z,20.40
2018-09-06T22:46:33.074Z,20.40
2018-09-06T22:49:01.746Z,20.50
2018-09-06T22:51:30.162Z,20.40
2018-09-06T22:53:58.726Z,20.40
2018-09-06T22:56:27.214Z,20.50
2018-09-06T22:58:55.780Z,20.50
2018-09-06T23:01:24.637Z,20.50
2018-09-06T23:03:54.078Z,20.50
2018-09-06T23:06:23.376Z,20.50
2018-09-06T23:08:51.922Z,20.50
2018-09-06T23:11:20.458Z,20.50
2018-09-06T23:13:49.069Z,20.50
2018-09-06T23:16:17.640Z,20.60
2018-09-06T23:18:46.251Z,20.60
2018-09-06T23:21:14.797Z,20.60
2018-09-06T23:23:44.354Z,20.60
2018-09-06T23:26:12.876Z,20.60
2018-09-06T23:28:42.014Z,20.60
2018-09-06T23:31:10.511Z,20.60
2018-09-06T23:33:39.282Z,20.60
2018-09-06T23:36:07.871Z,20.60
2018-09-06T23:38:37.983Z,20.60
2018-09-06T23:41:06.551Z,20.60
2018-09-06T23:43:35.208Z,20.60
2018-09-06T23:46:03.857Z,20.60
2018-09-06T23:48:32.414Z,20.60
2018-09-06T23:51:01.508Z,20.50
2018-09-06T23:53:30.039Z,20.50
2018-09-06T23:55:58.540Z,20.50
2018-09-06T23:58:27.079Z,20.50
